createdAt,value
2022-08-25T00:02:07.209Z,2.80
2022-08-25T00:04:35.346Z,2.60
2022-08-25T00:07:04.868Z,2.70
2022-08-25T00:09:33.056Z,2.70
2022-08-25T00:12:00.182Z,2.90
2022-08-25T00:14:35.498Z,2.40
2022-08-25T00:17:04.664Z,2.60
2022-08-25T00:19:33.682Z,2.20
2022-08-25T00:22:00.937Z,3.00
2022-08-25T00:24:28.094Z,2.10
2022-08-25T00:26:56.936Z,3.30
2022-08-25T00:29:27.814Z,3.00
2022-08-25T00:31:55.767Z,2.90
2022-08-25T00:34:26.707Z,2.60
2022-08-25T00:36:53.363Z,3.20
2022-08-25T00:39:22.571Z,3.20
2022-08-25T00:41:52.180Z,2.90
2022-08-25T00:44:18.934Z,2.60
2022-08-25T00:46:51.475Z,3.10
2022-08-25T00:49:26.891Z,3.00
2022-08-25T00:52:18.042Z,2.80
2022-08-25T00:54:55.288Z,2.70
2022-08-25T00:57:34.700Z,2.80
2022-08-25T01:00:12.050Z,2.80
2022-08-25T01:02:39.179Z,2.90
2022-08-25T01:05:06.368Z,2.80
2022-08-25T01:07:32.850Z,3.70
2022-08-25T01:09:59.843Z,3.60
2022-08-25T01:12:26.523Z,2.90
2022-08-25T01:14:54.640Z,2.80
2022-08-25T01:17:21.671Z,3.20
2022-08-25T01:19:47.885Z,3.20
2022-08-25T01:22:14.164Z,3.10
2022-08-25T01:24:50.300Z,3.50
2022-08-25T01:27:16.404Z,4.20
2022-08-25T01:29:42.522Z,3.50
2022-08-25T01:32:11.664Z,3.20
2022-08-25T01:34:41.198Z,2.80
2022-08-25T01:37:09.122Z,3.30
2022-08-25T01:39:39.977Z,3.30
2022-08-25T01:42:06.275Z,2.80
2022-08-25T01:44:36.015Z,3.50
2022-08-25T01:47:04.217Z,3.10
2022-08-25T01:49:30.319Z,3.60
2022-08-25T01:52:01.837Z,3.20
2022-08-25T01:54:27.922Z,3.70
2022-08-25T01:56:53.946Z,4.50
2022-08-25T01:59:24.268Z,3.20
2022-08-25T02:01:51.308Z,3.30
2022-08-25T02:04:26.407Z,3.40
2022-08-25T02:06:52.448Z,3.30
2022-08-25T02:09:18.570Z,3.80
2022-08-25T02:11:47.348Z,3.90
2022-08-25T02:14:15.102Z,3.30
2022-08-25T02:16:44.293Z,3.20
2022-08-25T02:19:11.810Z,4.40
2022-08-25T02:21:39.561Z,4.10
2022-08-25T02:24:06.574Z,4.40
2022-08-25T02:26:33.532Z,4.10
2022-08-25T02:29:00.824Z,4.20
2022-08-25T02:31:28.203Z,3.70
2022-08-25T02:33:54.720Z,4.80
2022-08-25T02:36:21.513Z,3.70
2022-08-25T02:38:48.152Z,3.80
2022-08-25T02:41:17.870Z,4.10
2022-08-25T02:43:44.760Z,4.30
2022-08-25T02:46:12.126Z,4.40
2022-08-25T02:48:39.642Z,4.20
2022-08-25T02:51:08.307Z,3.50
2022-08-25T02:53:35.840Z,4.80
2022-08-25T02:56:02.302Z,3.90
2022-08-25T02:58:28.520Z,4.30
2022-08-25T03:00:56.152Z,4.10
2022-08-25T03:03:22.620Z,4.00
2022-08-25T03:05:49.074Z,4.80
2022-08-25T03:08:15.500Z,4.30
2022-08-25T03:10:41.642Z,4.50
2022-08-25T03:13:07.770Z,4.30
2022-08-25T03:15:37.294Z,4.30
2022-08-25T03:18:05.547Z,4.60
2022-08-25T03:20:35.734Z,4.40
2022-08-25T03:23:03.023Z,4.30
2022-08-25T03:25:48.002Z,5.10
2022-08-25T03:28:14.651Z,5.00
2022-08-25T03:30:41.898Z,4.50
2022-08-25T03:33:08.188Z,4.50
2022-08-25T03:35:34.256Z,5.20
2022-08-25T03:38:01.675Z,4.70
2022-08-25T03:40:28.532Z,4.80
2022-08-25T03:42:56.284Z,4.70
2022-08-25T03:45:23.965Z,4.40
2022-08-25T03:47:51.955Z,5.10
2022-08-25T03:50:20.587Z,4.60
2022-08-25T03:52:54.578Z,4.30
2022-08-25T03:55:23.051Z,5.80
2022-08-25T03:57:50.499Z,4.40
2022-08-25T04:00:17.208Z,5.30
2022-08-25T04:02:43.377Z,4.90
2022-08-25T04:05:09.613Z,5.20
2022-08-25T04:07:35.841Z,5.20
2022-08-25T04:10:02.141Z,4.80
2022-08-25T04:12:28.300Z,4.60
2022-08-25T04:14:55.567Z,4.70
2022-08-25T04:17:22.394Z,5.50
2022-08-25T04:19:48.464Z,5.70
2022-08-25T04:22:14.527Z,5.40
2022-08-25T04:24:40.601Z,4.70
2022-08-25T04:27:06.692Z,4.10
2022-08-25T04:29:33.568Z,6.00
2022-08-25T04:31:59.693Z,4.80
2022-08-25T04:34:29.518Z,5.90
2022-08-25T04:37:03.206Z,4.90
2022-08-25T04:39:30.605Z,5.30
2022-08-25T04:41:56.994Z,5.80
2022-08-25T04:44:23.142Z,5.60
2022-08-25T04:46:49.511Z,6.10
2022-08-25T04:49:15.732Z,5.10
2022-08-25T04:53:00.282Z,5.30
2022-08-25T04:55:26.668Z,6.50
2022-08-25T04:57:52.796Z,5.50
2022-08-25T05:00:19.048Z,6.00
2022-08-25T05:02:45.253Z,6.00
2022-08-25T05:05:11.284Z,5.90
2022-08-25T05:07:37.389Z,6.30
2022-08-25T05:10:04.012Z,6.60
2022-08-25T05:12:31.009Z,5.80
2022-08-25T05:15:19.190Z,6.90
2022-08-25T05:17:45.357Z,6.20
2022-08-25T05:20:11.470Z,7.10
2022-08-25T05:22:37.574Z,6.70
2022-08-25T05:25:04.200Z,6.80
2022-08-25T05:27:30.457Z,6.40
2022-08-25T05:29:56.691Z,6.80
2022-08-25T05:32:22.728Z,6.60
2022-08-25T05:34:48.835Z,6.50
2022-08-25T05:37:15.012Z,6.90
2022-08-25T05:39:41.154Z,6.60
2022-08-25T05:42:07.247Z,6.50
2022-08-25T05:44:33.468Z,6.50
2022-08-25T05:46:59.596Z,6.80
2022-08-25T05:49:25.844Z,7.00
2022-08-25T05:51:51.947Z,7.30
2022-08-25T05:54:18.339Z,6.40
2022-08-25T05:56:44.989Z,7.30
2022-08-25T05:59:11.156Z,7.50
2022-08-25T06:01:55.908Z,7.10
2022-08-25T06:04:22.813Z,7.30
2022-08-25T06:06:52.867Z,6.30
2022-08-25T06:09:18.992Z,7.10
2022-08-25T06:11:46.841Z,7.60
2022-08-25T06:14:12.935Z,6.50
2022-08-25T06:16:39.826Z,6.90
2022-08-25T06:19:09.427Z,6.80
2022-08-25T06:21:38.591Z,8.10
2022-08-25T06:24:05.332Z,8.20
2022-08-25T06:26:31.410Z,8.00
2022-08-25T06:28:57.508Z,8.10
2022-08-25T06:31:24.073Z,7.60
2022-08-25T06:33:51.618Z,6.80
2022-08-25T06:36:19.602Z,7.10
2022-08-25T06:38:47.057Z,7.50
2022-08-25T06:41:13.452Z,7.20
2022-08-25T06:43:47.382Z,8.10
2022-08-25T06:46:17.927Z,7.90
2022-08-25T06:48:44.137Z,6.90
2022-08-25T06:51:15.110Z,7.10
2022-08-25T06:53:42.410Z,7.40
2022-08-25T06:56:09.097Z,6.90
2022-08-25T06:58:35.556Z,7.20
2022-08-25T07:01:20.209Z,7.50
2022-08-25T07:03:47.134Z,7.60
2022-08-25T07:06:14.823Z,7.50
2022-08-25T07:08:46.188Z,7.20
2022-08-25T07:11:16.648Z,7.50
2022-08-25T07:13:44.924Z,7.50
2022-08-25T07:16:11.573Z,7.90
2022-08-25T07:18:37.882Z,8.10
2022-08-25T07:21:04.058Z,7.70
2022-08-25T07:23:30.171Z,8.70
2022-08-25T07:25:56.388Z,6.90
2022-08-25T07:28:23.174Z,8.00
2022-08-25T07:30:52.183Z,7.40
2022-08-25T07:33:18.611Z,6.80
2022-08-25T07:35:44.827Z,7.60
2022-08-25T07:38:12.579Z,6.50
2022-08-25T07:40:42.956Z,7.60
2022-08-25T07:43:09.757Z,7.40
2022-08-25T07:45:46.889Z,7.60
2022-08-25T07:48:19.382Z,7.10
2022-08-25T07:50:47.009Z,6.80
2022-08-25T07:53:15.060Z,8.00
2022-08-25T07:55:41.885Z,6.70
2022-08-25T07:58:12.384Z,7.30
2022-08-25T08:00:42.369Z,6.90
2022-08-25T08:03:12.871Z,7.20
2022-08-25T08:05:50.326Z,6.40
2022-08-25T08:08:16.554Z,7.40
2022-08-25T08:11:04.020Z,6.70
2022-08-25T08:13:32.888Z,7.60
2022-08-25T08:16:01.051Z,7.30
2022-08-25T08:18:27.178Z,7.80
2022-08-25T08:20:53.338Z,6.90
2022-08-25T08:23:27.146Z,8.10
2022-08-25T08:25:53.319Z,6.80
2022-08-25T08:28:19.804Z,7.40
2022-08-25T08:30:53.078Z,7.60
2022-08-25T08:33:21.169Z,7.10
2022-08-25T08:35:47.192Z,6.90
2022-08-25T08:38:18.481Z,7.40
2022-08-25T08:41:23.244Z,7.80
2022-08-25T08:43:56.147Z,6.60
2022-08-25T08:46:22.833Z,7.20
2022-08-25T08:48:56.993Z,6.20
2022-08-25T08:51:33.076Z,6.00
2022-08-25T08:54:15.199Z,7.00
2022-08-25T08:56:48.120Z,6.30
2022-08-25T08:59:30.247Z,6.10
2022-08-25T09:02:39.424Z,5.70
2022-08-25T09:05:19.514Z,6.10
2022-08-25T09:07:59.069Z,7.20
2022-08-25T09:10:32.671Z,5.90
2022-08-25T09:13:56.566Z,6.20
2022-08-25T09:16:49.917Z,6.20
2022-08-25T09:19:44.004Z,6.10
2022-08-25T09:22:33.911Z,5.70
2022-08-25T09:25:39.784Z,6.40
2022-08-25T09:28:18.116Z,5.70
2022-08-25T09:31:06.512Z,6.10
2022-08-25T09:33:35.619Z,6.00
2022-08-25T09:36:04.627Z,6.00
2022-08-25T09:38:32.914Z,5.80
2022-08-25T09:41:01.446Z,5.60
2022-08-25T09:43:35.154Z,5.60
2022-08-25T09:46:15.247Z,5.00
2022-08-25T09:48:41.259Z,5.30
2022-08-25T09:51:41.590Z,4.80
2022-08-25T09:54:11.958Z,4.20
2022-08-25T09:56:50.191Z,4.60
2022-08-25T09:59:21.896Z,4.70
2022-08-25T10:02:06.179Z,4.40
2022-08-25T10:04:38.878Z,4.70
2022-08-25T10:07:35.124Z,4.40
2022-08-25T10:10:17.733Z,5.10
2022-08-25T10:12:51.120Z,5.30
2022-08-25T10:15:29.383Z,4.90
2022-08-25T10:18:23.842Z,6.30
2022-08-25T10:21:01.732Z,5.30
2022-08-25T10:23:29.040Z,5.40
2022-08-25T10:26:04.416Z,4.90
2022-08-25T10:28:39.136Z,5.30
2022-08-25T10:31:23.277Z,5.10
2022-08-25T10:34:03.450Z,5.40
2022-08-25T10:36:39.624Z,4.60
2022-08-25T10:39:33.906Z,5.60
2022-08-25T10:42:25.880Z,3.80
2022-08-25T10:45:41.616Z,3.60
2022-08-25T10:48:32.236Z,3.60
2022-08-25T10:51:29.060Z,2.80
2022-08-25T10:54:16.966Z,2.70
2022-08-25T10:56:58.501Z,2.50
2022-08-25T10:59:42.920Z,2.60
2022-08-25T11:02:51.672Z,2.10
2022-08-25T11:05:36.326Z,2.50
2022-08-25T11:08:12.151Z,2.60
2022-08-25T11:10:49.573Z,2.40
2022-08-25T11:13:25.430Z,3.00
2022-08-25T11:19:06.373Z,2.60
2022-08-25T11:22:00.994Z,2.40
2022-08-25T11:24:40.672Z,2.20
2022-08-25T11:27:15.584Z,2.70
2022-08-25T11:29:56.472Z,2.40
2022-08-25T11:32:24.220Z,3.40
2022-08-25T11:34:52.316Z,3.30
2022-08-25T11:37:27.393Z,2.80
2022-08-25T11:40:13.194Z,2.60
2022-08-25T11:43:28.292Z,2.70
2022-08-25T11:49:07.548Z,2.60
2022-08-25T11:51:42.277Z,2.70
2022-08-25T11:54:42.398Z,2.80
2022-08-25T11:57:16.435Z,2.80
2022-08-25T11:59:51.582Z,2.40
2022-08-25T12:02:46.884Z,2.20
2022-08-25T12:08:11.957Z,2.90
2022-08-25T12:11:11.256Z,2.70
2022-08-25T12:13:49.344Z,2.80
2022-08-25T12:16:35.217Z,2.30
2022-08-25T12:19:28.692Z,2.70
2022-08-25T12:22:00.701Z,2.30
2022-08-25T12:24:41.780Z,2.30
2022-08-25T12:27:39.754Z,2.30
2022-08-25T12:30:24.446Z,2.50
2022-08-25T12:33:13.599Z,2.30
2022-08-25T12:36:00.074Z,2.30
2022-08-25T12:38:50.885Z,2.40
2022-08-25T12:41:31.115Z,2.70
2022-08-25T12:44:34.621Z,2.40
2022-08-25T12:47:23.823Z,1.90
2022-08-25T12:49:50.458Z,2.10
2022-08-25T12:52:20.473Z,2.40
2022-08-25T12:55:03.194Z,3.00
2022-08-25T12:57:41.943Z,2.50
2022-08-25T13:00:18.379Z,2.20
2022-08-25T13:03:26.702Z,2.20
2022-08-25T13:06:15.944Z,2.30
2022-08-25T13:09:31.487Z,2.10
2022-08-25T13:12:11.781Z,2.30
2022-08-25T13:14:44.021Z,2.30
2022-08-25T13:17:10.435Z,2.50
2022-08-25T13:19:38.005Z,2.50
2022-08-25T13:22:16.485Z,2.70
2022-08-25T13:24:47.556Z,2.60
2022-08-25T13:27:24.272Z,2.30
2022-08-25T13:29:56.689Z,1.90
2022-08-25T13:32:35.394Z,2.40
2022-08-25T13:35:17.580Z,2.20
2022-08-25T13:37:46.069Z,2.40
2022-08-25T13:40:26.021Z,2.00
2022-08-25T13:42:59.421Z,2.50
2022-08-25T13:45:31.895Z,2.10
2022-08-25T13:47:58.693Z,2.10
2022-08-25T13:50:34.013Z,1.90
2022-08-25T13:52:59.999Z,2.30
2022-08-25T13:55:51.821Z,2.70
2022-08-25T13:58:44.830Z,1.90
2022-08-25T14:01:22.748Z,2.50
2022-08-25T14:04:32.092Z,2.40
2022-08-25T14:07:11.976Z,1.90
2022-08-25T14:09:54.752Z,2.00
2022-08-25T14:12:41.143Z,2.10
2022-08-25T14:15:13.185Z,2.00
2022-08-25T14:17:42.706Z,2.10
2022-08-25T14:20:28.353Z,2.00
2022-08-25T14:22:58.252Z,2.20
2022-08-25T14:25:28.261Z,2.00
2022-08-25T14:28:08.098Z,2.30
2022-08-25T14:30:38.925Z,2.10
2022-08-25T14:33:07.609Z,2.30
2022-08-25T14:35:34.143Z,2.00
2022-08-25T14:38:07.750Z,2.40
2022-08-25T14:40:34.961Z,2.30
2022-08-25T14:43:01.091Z,2.20
2022-08-25T14:45:30.854Z,2.80
2022-08-25T14:48:03.106Z,2.30
2022-08-25T14:50:29.389Z,2.60
2022-08-25T14:52:58.266Z,2.20
2022-08-25T14:55:30.831Z,2.40
2022-08-25T14:57:58.488Z,2.50
2022-08-25T15:00:24.886Z,2.80
2022-08-25T15:02:52.955Z,2.50
2022-08-25T15:05:26.844Z,2.40
2022-08-25T15:08:14.291Z,2.40
2022-08-25T15:10:41.821Z,2.20
2022-08-25T15:13:10.307Z,2.10
2022-08-25T15:15:52.571Z,2.50
2022-08-25T15:18:22.094Z,2.20
2022-08-25T15:20:50.048Z,2.10
2022-08-25T15:23:20.402Z,2.30
2022-08-25T15:25:49.025Z,2.60
2022-08-25T15:28:22.206Z,1.80
2022-08-25T15:30:50.553Z,2.30
2022-08-25T15:33:17.291Z,2.20
2022-08-25T15:35:43.571Z,2.40
2022-08-25T15:38:11.533Z,1.90
2022-08-25T15:40:38.911Z,2.20
2022-08-25T15:43:05.585Z,2.20
2022-08-25T15:45:35.384Z,2.10
2022-08-25T15:48:02.214Z,1.80
2022-08-25T15:50:29.968Z,2.20
2022-08-25T15:52:56.402Z,2.40
2022-08-25T15:55:22.909Z,2.50
2022-08-25T15:57:50.673Z,2.40
2022-08-25T16:00:17.986Z,2.30
2022-08-25T16:02:45.447Z,2.60
2022-08-25T16:05:11.883Z,2.80
2022-08-25T16:07:39.848Z,2.30
2022-08-25T16:10:06.422Z,2.40
2022-08-25T16:12:32.616Z,2.00
2022-08-25T16:14:58.763Z,2.90
2022-08-25T16:17:26.365Z,2.30
2022-08-25T16:19:52.420Z,2.30
2022-08-25T16:22:18.488Z,2.20
2022-08-25T16:24:44.965Z,2.30
2022-08-25T16:27:12.529Z,2.30
2022-08-25T16:29:43.515Z,2.30
2022-08-25T16:32:12.098Z,2.20
2022-08-25T16:34:41.463Z,2.80
2022-08-25T16:37:08.240Z,2.40
2022-08-25T16:39:35.388Z,2.20
2022-08-25T16:42:01.768Z,2.30
2022-08-25T16:44:28.068Z,3.10
2022-08-25T16:46:54.837Z,2.00
2022-08-25T16:49:24.359Z,2.70
2022-08-25T16:51:52.218Z,2.60
2022-08-25T16:54:42.966Z,2.70
2022-08-25T16:57:09.110Z,2.50
2022-08-25T16:59:39.753Z,2.40
2022-08-25T17:02:06.344Z,2.60
2022-08-25T17:04:32.827Z,2.60
2022-08-25T17:06:59.513Z,2.90
2022-08-25T17:09:25.644Z,3.30
2022-08-25T17:11:56.118Z,2.40
2022-08-25T17:14:22.297Z,2.90
2022-08-25T17:16:50.760Z,2.70
2022-08-25T17:19:16.939Z,2.90
2022-08-25T17:21:45.447Z,2.80
2022-08-25T17:24:12.688Z,3.30
2022-08-25T17:26:42.185Z,2.70
2022-08-25T17:29:09.188Z,2.50
2022-08-25T17:31:39.368Z,3.20
2022-08-25T17:34:08.105Z,2.90
2022-08-25T17:36:34.918Z,3.10
2022-08-25T17:39:03.122Z,3.20
2022-08-25T17:41:29.758Z,2.90
2022-08-25T17:43:56.069Z,2.90
2022-08-25T17:46:22.579Z,2.80
2022-08-25T17:48:48.904Z,3.70
2022-08-25T17:51:15.864Z,4.10
2022-08-25T17:53:43.577Z,5.30
2022-08-25T17:56:13.901Z,3.60
2022-08-25T17:58:41.569Z,5.20
2022-08-25T18:01:19.099Z,5.50
2022-08-25T18:03:46.163Z,3.90
2022-08-25T18:06:16.185Z,5.20
2022-08-25T18:08:44.204Z,5.20
2022-08-25T18:11:11.048Z,5.00
2022-08-25T18:13:38.107Z,4.30
2022-08-25T18:16:05.485Z,7.70
2022-08-25T18:18:36.168Z,5.60
2022-08-25T18:21:02.609Z,5.40
2022-08-25T18:23:29.516Z,5.10
2022-08-25T18:26:00.748Z,4.00
2022-08-25T18:28:28.947Z,4.00
2022-08-25T18:30:56.299Z,3.90
2022-08-25T18:33:23.104Z,3.70
2022-08-25T18:35:49.376Z,3.30
2022-08-25T18:38:34.937Z,3.70
2022-08-25T18:41:05.874Z,2.60
2022-08-25T18:43:33.842Z,3.00
2022-08-25T18:46:03.980Z,3.30
2022-08-25T18:48:31.924Z,3.80
2022-08-25T18:51:00.522Z,3.50
2022-08-25T18:53:36.757Z,3.50
2022-08-25T18:56:05.486Z,3.80
2022-08-25T18:58:33.370Z,3.40
2022-08-25T19:01:00.920Z,3.50
2022-08-25T19:03:27.343Z,3.60
2022-08-25T19:05:57.685Z,4.20
2022-08-25T19:08:25.385Z,4.10
2022-08-25T19:10:53.826Z,3.50
2022-08-25T19:13:22.383Z,3.60
2022-08-25T19:15:51.904Z,3.60
2022-08-25T19:18:26.224Z,3.10
2022-08-25T19:20:55.724Z,3.10
2022-08-25T19:23:21.908Z,3.40
2022-08-25T19:25:48.028Z,3.20
2022-08-25T19:29:30.321Z,3.30
2022-08-25T19:31:58.229Z,3.10
2022-08-25T19:34:32.802Z,3.10
2022-08-25T19:37:02.952Z,3.10
2022-08-25T19:39:32.805Z,3.40
2022-08-25T19:41:59.351Z,3.20
2022-08-25T19:44:27.787Z,2.90
2022-08-25T19:46:54.349Z,3.70
2022-08-25T19:49:31.586Z,2.90
2022-08-25T19:52:02.352Z,4.10
2022-08-25T19:54:33.636Z,3.70
2022-08-25T19:57:01.063Z,3.10
2022-08-25T19:59:42.391Z,3.70
2022-08-25T20:02:18.315Z,3.70
2022-08-25T20:04:49.769Z,4.00
2022-08-25T20:07:19.678Z,3.50
2022-08-25T20:09:47.025Z,3.50
2022-08-25T20:14:40.158Z,3.40
2022-08-25T20:17:13.121Z,4.10
2022-08-25T20:19:53.784Z,3.60
2022-08-25T20:22:24.976Z,3.70
2022-08-25T20:24:57.793Z,3.30
2022-08-25T20:27:33.259Z,4.00
2022-08-25T20:30:02.709Z,4.00
2022-08-25T20:32:31.974Z,4.50
2022-08-25T20:34:58.498Z,3.70
2022-08-25T20:37:25.552Z,4.10
2022-08-25T20:39:52.280Z,4.20
2022-08-25T20:42:18.924Z,3.50
2022-08-25T20:44:46.690Z,3.70
2022-08-25T20:47:14.968Z,3.00
2022-08-25T20:49:44.533Z,4.20
2022-08-25T20:52:13.868Z,3.60
2022-08-25T20:54:43.800Z,3.50
2022-08-25T20:59:44.862Z,3.30
2022-08-25T21:02:13.756Z,3.50
2022-08-25T21:04:48.991Z,3.40
2022-08-25T21:09:45.169Z,3.20
2022-08-25T21:12:11.653Z,3.80
2022-08-25T21:14:41.325Z,3.20
2022-08-25T21:17:15.854Z,3.70
2022-08-25T21:19:46.440Z,4.00
2022-08-25T21:22:13.277Z,6.20
2022-08-25T21:24:39.795Z,4.70
2022-08-25T21:27:07.785Z,4.40
2022-08-25T21:29:34.306Z,3.90
2022-08-25T21:32:00.576Z,3.60
2022-08-25T21:34:28.860Z,3.80
2022-08-25T21:36:57.236Z,4.00
2022-08-25T21:39:25.894Z,3.50
2022-08-25T21:41:53.262Z,3.90
2022-08-25T21:44:19.865Z,3.50
2022-08-25T21:46:53.802Z,3.90
2022-08-25T21:49:23.621Z,3.70
2022-08-25T21:52:00.267Z,3.30
2022-08-25T21:54:28.575Z,4.30
2022-08-25T21:57:01.490Z,3.30
2022-08-25T21:59:34.522Z,3.60
2022-08-25T22:02:03.777Z,3.60
2022-08-25T22:04:31.833Z,3.80
2022-08-25T22:06:58.425Z,4.70
2022-08-25T22:09:26.611Z,4.10
2022-08-25T22:11:55.177Z,4.60
2022-08-25T22:14:22.995Z,4.20
2022-08-25T22:16:52.614Z,3.80
2022-08-25T22:19:21.369Z,4.20
2022-08-25T22:21:50.269Z,4.00
2022-08-25T22:24:17.431Z,4.10
2022-08-25T22:26:44.230Z,4.70
2022-08-25T22:29:14.167Z,4.70
2022-08-25T22:31:51.108Z,4.30
2022-08-25T22:34:19.817Z,3.80
2022-08-25T22:36:59.525Z,3.60
2022-08-25T22:39:26.575Z,3.60
2022-08-25T22:41:53.640Z,4.00
2022-08-25T22:44:19.771Z,4.00
2022-08-25T22:46:45.980Z,3.70
2022-08-25T22:49:12.209Z,3.60
2022-08-25T22:51:38.398Z,4.30
2022-08-25T22:54:05.143Z,4.60
2022-08-25T22:56:36.835Z,4.20
2022-08-25T22:59:07.983Z,4.20
2022-08-25T23:01:34.436Z,4.30
2022-08-25T23:04:02.753Z,4.20
2022-08-25T23:06:29.843Z,4.40
2022-08-25T23:08:57.502Z,4.00
2022-08-25T23:11:24.405Z,4.40
2022-08-25T23:13:55.358Z,4.30
2022-08-25T23:16:21.727Z,4.40
2022-08-25T23:18:48.227Z,4.80
2022-08-25T23:21:38.048Z,4.70
2022-08-25T23:24:08.466Z,5.10
2022-08-25T23:26:35.834Z,4.70
2022-08-25T23:29:03.191Z,4.40
2022-08-25T23:31:41.467Z,4.10
2022-08-25T23:34:08.339Z,4.50
2022-08-25T23:36:35.371Z,4.80
2022-08-25T23:39:01.590Z,4.50
2022-08-25T23:41:28.079Z,4.60
2022-08-25T23:43:55.572Z,4.70
2022-08-25T23:46:24.599Z,4.50
2022-08-25T23:48:54.220Z,5.00
2022-08-25T23:51:26.770Z,4.80
2022-08-25T23:53:54.747Z,6.00
2022-08-25T23:56:22.395Z,5.40
2022-08-25T23:58:48.654Z,5.30
